createdAt,value
2018-12-03T00:00:16.665Z,9.80
2018-12-03T00:02:45.332Z,9.80
2018-12-03T00:05:13.721Z,9.80
2018-12-03T00:07:42.084Z,9.90
2018-12-03T00:10:10.582Z,9.80
2018-12-03T00:12:38.865Z,9.80
2018-12-03T00:15:07.602Z,9.80
2018-12-03T00:17:36.070Z,9.80
2018-12-03T00:20:05.196Z,9.80
2018-12-03T00:22:34.118Z,9.70
2018-12-03T00:25:02.454Z,9.80
2018-12-03T00:27:30.827Z,9.80
2018-12-03T00:29:59.154Z,9.80
2018-12-03T00:32:27.445Z,9.90
2018-12-03T00:34:55.712Z,9.80
2018-12-03T00:37:24.052Z,9.90
2018-12-03T00:39:52.349Z,9.80
2018-12-03T00:42:20.774Z,9.80
2018-12-03T00:44:49.087Z,9.80
2018-12-03T00:47:17.330Z,9.70
2018-12-03T00:49:45.639Z,9.80
2018-12-03T00:52:13.903Z,9.70
2018-12-03T00:54:42.160Z,9.70
2018-12-03T00:57:10.380Z,9.70
2018-12-03T00:59:38.681Z,9.70
2018-12-03T01:02:11.191Z,9.70
2018-12-03T01:04:39.436Z,9.70
2018-12-03T01:07:08.194Z,9.70
2018-12-03T01:09:36.410Z,9.70
2018-12-03T01:12:05.000Z,9.70
2018-12-03T01:14:33.225Z,9.80
2018-12-03T01:17:01.484Z,9.80
2018-12-03T01:19:29.752Z,9.80
2018-12-03T01:21:58.011Z,9.80
2018-12-03T01:24:26.516Z,9.80
2018-12-03T01:26:54.749Z,9.80
2018-12-03T01:29:23.027Z,9.80
2018-12-03T01:31:51.273Z,9.80
2018-12-03T01:34:19.830Z,9.80
2018-12-03T01:36:48.387Z,9.80
2018-12-03T01:39:16.653Z,9.80
2018-12-03T01:41:44.928Z,9.70
2018-12-03T01:44:13.225Z,9.60
2018-12-03T01:46:41.500Z,9.70
2018-12-03T01:49:09.763Z,9.70
2018-12-03T01:51:37.981Z,9.60
2018-12-03T01:54:06.250Z,9.50
2018-12-03T01:56:34.533Z,9.50
2018-12-03T01:59:02.801Z,9.50
2018-12-03T02:01:31.045Z,9.50
2018-12-03T02:03:59.337Z,9.60
2018-12-03T02:06:27.553Z,9.50
2018-12-03T02:08:55.801Z,9.60
2018-12-03T02:11:24.092Z,9.60
2018-12-03T02:13:52.387Z,9.60
2018-12-03T02:16:20.600Z,9.60
2018-12-03T02:18:48.854Z,9.70
2018-12-03T02:21:17.085Z,9.70
2018-12-03T02:23:45.365Z,9.70
2018-12-03T02:26:13.640Z,9.70
2018-12-03T02:28:41.878Z,9.70
2018-12-03T02:31:10.176Z,9.70
2018-12-03T02:33:38.465Z,9.70
2018-12-03T02:36:06.712Z,9.70
2018-12-03T02:38:34.981Z,9.70
2018-12-03T02:41:03.263Z,9.80
2018-12-03T02:43:31.503Z,9.70
2018-12-03T02:45:59.762Z,9.70
2018-12-03T02:48:28.429Z,9.70
2018-12-03T02:50:56.724Z,9.70
2018-12-03T02:53:24.948Z,9.70
2018-12-03T02:55:53.816Z,9.80
2018-12-03T02:58:22.047Z,9.70
2018-12-03T03:00:50.292Z,9.70
2018-12-03T03:03:18.540Z,9.80
2018-12-03T03:05:46.856Z,9.80
2018-12-03T03:08:15.112Z,9.80
2018-12-03T03:10:43.412Z,9.70
2018-12-03T03:13:11.750Z,9.70
2018-12-03T03:15:39.966Z,9.70
2018-12-03T03:18:08.543Z,9.70
2018-12-03T03:20:36.806Z,9.70
2018-12-03T03:23:05.564Z,9.70
2018-12-03T03:25:33.859Z,9.70
2018-12-03T03:28:02.108Z,9.70
2018-12-03T03:30:30.362Z,9.80
2018-12-03T03:32:58.694Z,9.80
2018-12-03T03:35:26.931Z,9.70
2018-12-03T03:37:55.326Z,9.70
2018-12-03T03:40:23.771Z,9.70
2018-12-03T03:42:52.246Z,9.60
2018-12-03T03:45:23.169Z,9.60
2018-12-03T03:47:51.531Z,9.60
2018-12-03T03:50:19.980Z,9.60
2018-12-03T03:52:48.427Z,9.50
2018-12-03T03:55:16.833Z,9.50
2018-12-03T03:57:45.273Z,9.50
2018-12-03T04:00:15.597Z,9.40
2018-12-03T04:02:44.088Z,9.50
2018-12-03T04:05:13.584Z,9.40
2018-12-03T04:07:43.323Z,9.40
2018-12-03T04:10:12.650Z,9.30
2018-12-03T04:12:41.641Z,9.20
2018-12-03T04:15:10.985Z,9.30
2018-12-03T04:17:39.479Z,9.20
2018-12-03T04:20:14.824Z,9.20
2018-12-03T04:22:44.147Z,9.20
2018-12-03T04:25:12.892Z,9.10
2018-12-03T04:27:41.349Z,9.10
2018-12-03T04:30:14.249Z,9.20
2018-12-03T04:32:42.650Z,9.10
2018-12-03T04:35:11.563Z,9.10
2018-12-03T04:37:40.054Z,9.10
2018-12-03T04:40:11.215Z,9.00
2018-12-03T04:42:39.717Z,9.00
2018-12-03T04:45:13.402Z,9.00
2018-12-03T04:47:41.872Z,9.00
2018-12-03T04:50:12.454Z,9.00
2018-12-03T04:52:40.812Z,8.90
2018-12-03T04:55:09.550Z,8.90
2018-12-03T04:57:38.011Z,8.80
2018-12-03T05:00:13.730Z,8.80
2018-12-03T05:02:42.890Z,8.90
2018-12-03T05:05:11.449Z,8.90
2018-12-03T05:07:39.744Z,8.90
2018-12-03T05:10:10.016Z,8.90
2018-12-03T05:12:38.343Z,9.00
2018-12-03T05:15:09.900Z,9.10
2018-12-03T05:17:38.513Z,9.10
2018-12-03T05:22:44.176Z,9.10
2018-12-03T05:25:11.752Z,9.20
2018-12-03T05:27:40.076Z,9.30
2018-12-03T05:30:13.137Z,9.30
2018-12-03T05:32:42.082Z,9.30
2018-12-03T05:35:15.568Z,9.30
2018-12-03T05:37:43.848Z,9.30
2018-12-03T05:40:14.646Z,9.30
2018-12-03T05:42:42.880Z,9.30
2018-12-03T05:45:11.175Z,9.30
2018-12-03T05:47:39.440Z,9.30
2018-12-03T05:50:11.567Z,9.30
2018-12-03T05:52:39.892Z,9.30
2018-12-03T05:55:09.542Z,9.30
2018-12-03T05:57:38.044Z,9.30
2018-12-03T06:00:13.256Z,9.30
2018-12-03T06:02:41.568Z,9.30
2018-12-03T06:05:10.785Z,9.20
2018-12-03T06:07:39.075Z,9.20
2018-12-03T06:10:11.621Z,9.30
2018-12-03T06:12:40.065Z,9.20
2018-12-03T06:15:09.790Z,9.30
2018-12-03T06:17:38.878Z,9.30
2018-12-03T06:20:09.876Z,9.30
2018-12-03T06:22:38.230Z,9.30
2018-12-03T06:25:08.905Z,9.40
2018-12-03T06:27:37.297Z,9.40
2018-12-03T06:30:08.970Z,9.40
2018-12-03T06:32:37.188Z,9.40
2018-12-03T06:35:06.885Z,9.40
2018-12-03T06:37:35.186Z,9.50
2018-12-03T06:40:04.304Z,9.50
2018-12-03T06:42:32.562Z,9.50
2018-12-03T06:45:00.828Z,9.50
2018-12-03T06:47:29.061Z,9.60
2018-12-03T06:49:57.323Z,9.70
2018-12-03T06:52:25.573Z,9.70
2018-12-03T06:54:53.844Z,9.70
2018-12-03T06:57:22.131Z,9.70
2018-12-03T06:59:50.361Z,9.70
2018-12-03T07:02:18.654Z,9.70
2018-12-03T07:04:46.933Z,9.70
2018-12-03T07:07:15.225Z,9.70
2018-12-03T07:09:43.497Z,9.80
2018-12-03T07:12:11.783Z,9.80
2018-12-03T07:14:40.072Z,9.80
2018-12-03T07:17:08.343Z,9.80
2018-12-03T07:19:36.620Z,9.80
2018-12-03T07:22:05.360Z,9.80
2018-12-03T07:24:33.612Z,9.80
2018-12-03T07:27:01.845Z,9.80
2018-12-03T07:29:30.199Z,9.80
2018-12-03T07:31:58.463Z,9.80
2018-12-03T07:34:26.712Z,9.80
2018-12-03T07:36:55.023Z,9.70
2018-12-03T07:39:23.268Z,9.70
2018-12-03T07:41:51.645Z,9.70
2018-12-03T07:44:20.001Z,9.70
2018-12-03T07:46:48.266Z,9.70
2018-12-03T07:49:16.616Z,9.80
2018-12-03T07:51:44.942Z,9.70
2018-12-03T07:54:13.211Z,9.60
2018-12-03T07:56:41.376Z,9.60
2018-12-03T07:59:09.731Z,9.50
2018-12-03T08:01:37.958Z,9.40
2018-12-03T08:04:06.280Z,9.40
2018-12-03T08:06:34.612Z,9.30
2018-12-03T08:09:02.980Z,9.20
2018-12-03T08:11:31.317Z,9.10
2018-12-03T08:13:59.568Z,9.10
2018-12-03T08:16:27.830Z,9.10
2018-12-03T08:18:56.240Z,9.00
2018-12-03T08:21:24.573Z,9.00
2018-12-03T08:23:56.477Z,9.00
2018-12-03T08:26:24.813Z,9.00
2018-12-03T08:28:53.137Z,9.00
2018-12-03T08:31:21.474Z,9.00
2018-12-03T08:33:50.122Z,9.00
2018-12-03T08:36:18.434Z,9.00
2018-12-03T08:38:46.831Z,9.00
2018-12-03T08:41:15.235Z,9.00
2018-12-03T08:43:43.533Z,9.00
2018-12-03T08:46:11.867Z,9.10
2018-12-03T08:48:41.414Z,9.10
2018-12-03T08:51:10.866Z,9.10
2018-12-03T08:53:39.218Z,9.10
2018-12-03T08:56:07.624Z,9.10
2018-12-03T08:58:36.136Z,9.10
2018-12-03T09:01:09.939Z,9.10
2018-12-03T09:03:38.270Z,9.10
2018-12-03T09:06:09.135Z,9.10
2018-12-03T09:08:37.476Z,9.00
2018-12-03T09:11:08.227Z,9.00
2018-12-03T09:13:36.541Z,9.00
2018-12-03T09:16:04.918Z,9.00
2018-12-03T09:18:36.217Z,9.00
2018-12-03T09:21:11.685Z,9.10
2018-12-03T09:23:41.188Z,9.10
2018-12-03T09:26:09.969Z,9.00
2018-12-03T09:28:38.361Z,9.00
2018-12-03T09:31:07.245Z,9.00
2018-12-03T09:33:35.517Z,9.00
2018-12-03T09:36:03.862Z,9.20
2018-12-03T09:38:40.698Z,9.20
2018-12-03T09:41:08.969Z,9.30
2018-12-03T09:43:37.574Z,9.30
2018-12-03T09:46:06.165Z,9.30
2018-12-03T09:48:34.448Z,9.40
2018-12-03T09:51:03.013Z,9.60
2018-12-03T09:53:31.312Z,9.70
2018-12-03T09:55:59.635Z,9.70
2018-12-03T09:58:27.947Z,9.80
2018-12-03T10:00:56.270Z,10.00
2018-12-03T10:03:27.615Z,10.20
2018-12-03T10:06:01.496Z,10.40
2018-12-03T10:08:31.490Z,10.60
2018-12-03T10:11:02.072Z,10.80
2018-12-03T10:13:31.439Z,10.80
2018-12-03T10:15:59.777Z,10.90
2018-12-03T10:18:28.128Z,10.90
2018-12-03T10:20:58.884Z,10.90
2018-12-03T10:23:27.224Z,10.90
2018-12-03T10:25:57.037Z,10.70
2018-12-03T10:28:25.737Z,10.60
2018-12-03T10:30:55.582Z,10.60
2018-12-03T10:33:27.189Z,10.70
2018-12-03T10:35:55.538Z,10.80
2018-12-03T10:38:31.150Z,10.90
2018-12-03T10:41:04.083Z,10.90
2018-12-03T10:43:32.416Z,11.10
2018-12-03T10:46:00.780Z,11.30
2018-12-03T10:48:29.152Z,11.50
2018-12-03T10:50:57.595Z,11.70
2018-12-03T10:53:28.773Z,11.80
2018-12-03T10:55:57.102Z,11.70
2018-12-03T10:58:25.470Z,11.50
2018-12-03T11:01:04.310Z,11.40
2018-12-03T11:04:10.081Z,11.20
2018-12-03T11:06:38.463Z,10.90
2018-12-03T11:09:08.345Z,10.70
2018-12-03T11:11:36.713Z,10.50
2018-12-03T11:14:07.405Z,10.50
2018-12-03T11:16:38.466Z,10.50
2018-12-03T11:19:08.038Z,10.70
2018-12-03T11:21:36.366Z,10.80
2018-12-03T11:24:05.366Z,10.90
2018-12-03T11:26:40.514Z,10.90
2018-12-03T11:29:09.319Z,11.00
2018-12-03T11:31:37.628Z,10.90
2018-12-03T11:34:06.044Z,10.80
2018-12-03T11:36:39.859Z,10.80
2018-12-03T11:39:16.589Z,10.90
2018-12-03T11:41:44.951Z,11.00
2018-12-03T11:44:13.340Z,11.00
2018-12-03T11:46:41.691Z,11.00
2018-12-03T11:49:10.068Z,11.10
2018-12-03T11:51:38.368Z,11.00
2018-12-03T11:54:06.753Z,11.00
2018-12-03T11:56:35.091Z,11.10
2018-12-03T11:59:03.436Z,11.10
2018-12-03T12:01:32.006Z,11.10
2018-12-03T12:04:00.338Z,11.10
2018-12-03T12:06:28.648Z,11.00
2018-12-03T12:08:56.996Z,11.00
2018-12-03T12:11:25.358Z,11.00
2018-12-03T12:13:53.640Z,11.10
2018-12-03T12:16:21.963Z,11.10
2018-12-03T12:18:50.251Z,11.10
2018-12-03T12:21:18.505Z,11.00
2018-12-03T12:23:46.864Z,11.00
2018-12-03T12:26:15.176Z,11.00
2018-12-03T12:28:43.438Z,11.00
2018-12-03T12:31:11.833Z,11.00
2018-12-03T12:33:40.129Z,11.00
2018-12-03T12:36:08.405Z,10.80
2018-12-03T12:38:36.778Z,10.70
2018-12-03T12:41:05.176Z,10.70
2018-12-03T12:43:33.456Z,10.70
2018-12-03T12:46:07.736Z,10.60
2018-12-03T12:48:36.203Z,10.60
2018-12-03T12:51:04.626Z,10.50
2018-12-03T12:53:32.969Z,10.50
2018-12-03T12:56:01.230Z,10.40
2018-12-03T12:58:29.557Z,10.40
2018-12-03T13:00:57.960Z,10.30
2018-12-03T13:03:26.283Z,10.30
2018-12-03T13:05:54.640Z,10.30
2018-12-03T13:08:22.961Z,10.30
2018-12-03T13:10:51.345Z,10.20
2018-12-03T13:13:19.693Z,10.10
2018-12-03T13:15:48.032Z,10.00
2018-12-03T13:18:16.382Z,10.00
2018-12-03T13:20:44.674Z,9.90
2018-12-03T13:23:13.037Z,9.90
2018-12-03T13:25:41.361Z,9.90
2018-12-03T13:28:09.637Z,9.80
2018-12-03T13:30:38.125Z,9.80
2018-12-03T13:33:06.938Z,9.70
2018-12-03T13:35:35.311Z,9.60
2018-12-03T13:38:03.752Z,9.60
2018-12-03T13:40:32.017Z,9.50
2018-12-03T13:43:00.384Z,9.30
2018-12-03T13:45:28.719Z,9.20
2018-12-03T13:47:58.683Z,9.10
2018-12-03T13:50:52.254Z,9.10
2018-12-03T13:53:19.837Z,9.00
2018-12-03T13:55:47.261Z,9.00
2018-12-03T13:58:14.734Z,9.00
2018-12-03T14:00:42.182Z,8.90
2018-12-03T14:03:09.664Z,8.90
2018-12-03T14:05:37.735Z,8.90
2018-12-03T14:08:07.036Z,8.90
2018-12-03T14:10:34.606Z,8.80
2018-12-03T14:13:02.156Z,8.80
2018-12-03T14:15:29.668Z,8.80
2018-12-03T14:17:57.285Z,8.80
2018-12-03T14:20:24.814Z,8.80
2018-12-03T14:22:52.271Z,8.70
2018-12-03T14:25:19.834Z,8.70
2018-12-03T14:27:47.280Z,8.70
2018-12-03T14:30:15.188Z,8.70
2018-12-03T14:32:42.590Z,8.70
2018-12-03T14:35:10.092Z,8.70
2018-12-03T14:37:37.513Z,8.60
2018-12-03T14:40:06.040Z,8.60
2018-12-03T14:42:34.061Z,8.60
2018-12-03T14:45:01.517Z,8.60
2018-12-03T14:47:29.022Z,8.60
2018-12-03T14:49:56.593Z,8.60
2018-12-03T14:52:24.002Z,8.50
2018-12-03T14:54:51.607Z,8.50
2018-12-03T14:57:19.121Z,8.40
2018-12-03T14:59:46.576Z,8.40
2018-12-03T15:02:14.055Z,8.40
2018-12-03T15:04:41.590Z,8.50
2018-12-03T15:07:09.140Z,8.50
2018-12-03T15:09:36.648Z,8.50
2018-12-03T15:12:04.156Z,8.60
2018-12-03T15:14:31.600Z,8.60
2018-12-03T15:16:59.130Z,8.60
2018-12-03T15:19:26.610Z,8.60
2018-12-03T15:21:54.139Z,8.60
2018-12-03T15:24:21.599Z,8.60
2018-12-03T15:26:49.048Z,8.60
2018-12-03T15:29:16.472Z,8.60
2018-12-03T15:31:44.000Z,8.60
2018-12-03T15:34:11.524Z,8.70
2018-12-03T15:36:39.015Z,8.70
2018-12-03T15:39:06.818Z,8.70
2018-12-03T15:41:34.319Z,8.70
2018-12-03T15:44:01.845Z,8.70
2018-12-03T15:46:29.334Z,8.70
2018-12-03T15:48:57.078Z,8.70
2018-12-03T15:51:24.522Z,8.70
2018-12-03T15:53:51.942Z,8.80
2018-12-03T15:56:19.421Z,8.90
2018-12-03T15:58:46.958Z,8.90
2018-12-03T16:01:14.646Z,9.00
2018-12-03T16:03:42.248Z,9.00
2018-12-03T16:06:09.894Z,9.00
2018-12-03T16:08:37.423Z,9.00
2018-12-03T16:11:04.926Z,9.00
2018-12-03T16:13:32.497Z,9.10
2018-12-03T16:16:00.060Z,9.10
2018-12-03T16:18:27.545Z,9.10
2018-12-03T16:20:55.034Z,9.20
2018-12-03T16:23:22.654Z,9.20
2018-12-03T16:25:50.105Z,9.20
2018-12-03T16:28:17.689Z,9.20
2018-12-03T16:30:45.095Z,9.20
2018-12-03T16:33:12.573Z,9.20
2018-12-03T16:35:39.989Z,9.20
2018-12-03T16:38:07.467Z,9.20
2018-12-03T16:40:35.011Z,9.20
2018-12-03T16:43:02.479Z,9.20
2018-12-03T16:45:30.015Z,9.30
2018-12-03T16:47:57.512Z,9.20
2018-12-03T16:50:24.951Z,9.20
2018-12-03T16:52:52.405Z,9.20
2018-12-03T16:55:19.951Z,9.10
2018-12-03T16:57:47.409Z,9.20
2018-12-03T17:00:15.134Z,9.20
2018-12-03T17:02:42.638Z,9.20
2018-12-03T17:05:10.142Z,9.10
2018-12-03T17:07:37.594Z,9.10
2018-12-03T17:10:07.084Z,9.10
2018-12-03T17:12:34.528Z,9.10
2018-12-03T17:15:01.953Z,9.10
2018-12-03T17:17:29.432Z,9.10
2018-12-03T17:19:56.896Z,9.10
2018-12-03T17:22:24.585Z,9.10
2018-12-03T17:24:52.139Z,9.10
2018-12-03T17:27:19.591Z,9.10
2018-12-03T17:29:47.017Z,9.10
2018-12-03T17:32:14.584Z,9.00
2018-12-03T17:34:42.029Z,9.00
2018-12-03T17:37:09.452Z,9.00
2018-12-03T17:39:36.932Z,9.00
2018-12-03T17:42:04.494Z,9.00
2018-12-03T17:44:31.963Z,9.00
2018-12-03T17:46:59.431Z,8.90
2018-12-03T17:49:26.979Z,8.90
2018-12-03T17:51:54.396Z,8.90
2018-12-03T17:54:21.891Z,8.90
2018-12-03T17:56:49.369Z,8.80
2018-12-03T17:59:16.802Z,8.80
2018-12-03T18:01:44.257Z,8.70
2018-12-03T18:04:13.710Z,8.80
2018-12-03T18:06:41.192Z,8.90
2018-12-03T18:09:10.370Z,8.90
2018-12-03T18:11:37.941Z,8.80
2018-12-03T18:14:05.394Z,8.90
2018-12-03T18:16:32.887Z,8.80
2018-12-03T18:19:00.396Z,8.80
2018-12-03T18:21:27.857Z,8.80
2018-12-03T18:23:56.432Z,8.80
2018-12-03T18:26:23.897Z,8.70
2018-12-03T18:28:51.337Z,8.70
2018-12-03T18:31:18.800Z,8.70
2018-12-03T18:33:46.723Z,8.70
2018-12-03T18:36:14.204Z,8.70
2018-12-03T18:38:41.704Z,8.70
2018-12-03T18:41:09.138Z,8.60
2018-12-03T18:43:36.626Z,8.70
2018-12-03T18:46:04.209Z,8.70
2018-12-03T18:48:31.780Z,8.60
2018-12-03T18:50:59.236Z,8.60
2018-12-03T18:53:26.725Z,8.60
2018-12-03T18:55:54.302Z,8.60
2018-12-03T18:58:21.780Z,8.60
2018-12-03T19:00:49.278Z,8.60
2018-12-03T19:03:16.757Z,8.60
2018-12-03T19:05:44.210Z,8.50
2018-12-03T19:08:11.686Z,8.60
2018-12-03T19:10:39.190Z,8.60
2018-12-03T19:13:06.622Z,8.50
2018-12-03T19:15:34.149Z,8.60
2018-12-03T19:18:01.623Z,8.60
2018-12-03T19:20:29.063Z,8.60
2018-12-03T19:22:56.559Z,8.70
2018-12-03T19:25:23.988Z,8.70
2018-12-03T19:27:51.443Z,8.70
2018-12-03T19:30:18.961Z,8.60
2018-12-03T19:32:46.449Z,8.60
2018-12-03T19:35:13.908Z,8.60
2018-12-03T19:37:41.606Z,8.60
2018-12-03T19:40:09.028Z,8.60
2018-12-03T19:42:36.533Z,8.60
2018-12-03T19:45:04.424Z,8.50
2018-12-03T19:47:31.840Z,8.60
2018-12-03T19:49:59.322Z,8.60
2018-12-03T19:52:26.950Z,8.60
2018-12-03T19:54:54.368Z,8.50
2018-12-03T19:57:21.858Z,8.50
2018-12-03T19:59:49.412Z,8.60
2018-12-03T20:02:16.945Z,8.50
2018-12-03T20:04:50.577Z,8.50
2018-12-03T20:07:18.002Z,8.50
2018-12-03T20:09:45.488Z,8.50
2018-12-03T20:12:12.971Z,8.60
2018-12-03T20:14:40.455Z,8.50
2018-12-03T20:17:07.881Z,8.50
2018-12-03T20:19:35.695Z,8.50
2018-12-03T20:22:04.311Z,8.50
2018-12-03T20:24:32.701Z,8.60
2018-12-03T20:27:00.951Z,8.60
2018-12-03T20:29:28.501Z,8.60
2018-12-03T20:31:59.889Z,8.60
2018-12-03T20:34:27.593Z,8.60
2018-12-03T20:36:58.018Z,8.60
2018-12-03T20:39:30.501Z,8.60
2018-12-03T20:41:59.172Z,8.60
2018-12-03T20:44:26.702Z,8.60
2018-12-03T20:46:55.106Z,8.60
2018-12-03T20:49:22.701Z,8.60
2018-12-03T20:51:50.552Z,8.70
2018-12-03T20:54:18.059Z,8.60
2018-12-03T20:56:45.516Z,8.70
2018-12-03T20:59:13.009Z,8.60
2018-12-03T21:01:40.646Z,8.60
2018-12-03T21:04:08.193Z,8.60
2018-12-03T21:06:35.648Z,8.60
2018-12-03T21:09:04.569Z,8.60
2018-12-03T21:11:32.024Z,8.60
2018-12-03T21:13:59.474Z,8.60
2018-12-03T21:16:26.940Z,8.60
2018-12-03T21:18:54.422Z,8.60
2018-12-03T21:21:21.886Z,8.60
2018-12-03T21:23:49.329Z,8.60
2018-12-03T21:26:16.895Z,8.60
2018-12-03T21:28:44.303Z,8.60
2018-12-03T21:31:11.798Z,8.50
2018-12-03T21:33:39.241Z,8.50
2018-12-03T21:36:06.790Z,8.50
2018-12-03T21:38:34.327Z,8.40
2018-12-03T21:41:01.787Z,8.40
2018-12-03T21:43:29.347Z,8.40
2018-12-03T21:45:56.928Z,8.40
2018-12-03T21:48:24.385Z,8.40
2018-12-03T21:50:51.828Z,8.40
2018-12-03T21:53:19.281Z,8.40
2018-12-03T21:55:46.783Z,8.50
2018-12-03T21:58:14.201Z,8.40
2018-12-03T22:00:41.753Z,8.40
2018-12-03T22:03:09.207Z,8.40
2018-12-03T22:05:36.685Z,8.40
2018-12-03T22:08:04.133Z,8.30
2018-12-03T22:10:31.673Z,8.40
2018-12-03T22:12:59.116Z,8.30
2018-12-03T22:15:26.731Z,8.30
2018-12-03T22:17:54.195Z,8.30
2018-12-03T22:20:21.632Z,8.30
2018-12-03T22:22:49.109Z,8.30
2018-12-03T22:25:16.582Z,8.30
2018-12-03T22:27:44.028Z,8.20
2018-12-03T22:30:11.524Z,8.30
2018-12-03T22:32:38.993Z,8.30
2018-12-03T22:35:06.549Z,8.30
2018-12-03T22:37:34.386Z,8.30
2018-12-03T22:40:01.897Z,8.30
2018-12-03T22:42:29.399Z,8.30
2018-12-03T22:44:56.876Z,8.30
2018-12-03T22:47:24.317Z,8.40
2018-12-03T22:49:51.946Z,8.30
2018-12-03T22:52:19.558Z,8.30
2018-12-03T22:54:47.034Z,8.40
2018-12-03T22:57:14.432Z,8.40
2018-12-03T22:59:41.986Z,8.40
2018-12-03T23:02:09.474Z,8.30
2018-12-03T23:04:38.802Z,8.40
2018-12-03T23:07:06.362Z,8.40
2018-12-03T23:09:33.805Z,8.40
2018-12-03T23:12:01.279Z,8.50
2018-12-03T23:14:28.712Z,8.50
2018-12-03T23:16:56.186Z,8.50
2018-12-03T23:19:23.701Z,8.50
2018-12-03T23:21:51.224Z,8.50
2018-12-03T23:24:18.746Z,8.50
2018-12-03T23:26:46.159Z,8.60
2018-12-03T23:29:13.720Z,8.60
2018-12-03T23:31:41.153Z,8.60
2018-12-03T23:34:08.578Z,8.60
2018-12-03T23:36:36.342Z,8.60
2018-12-03T23:39:06.033Z,8.60
2018-12-03T23:41:33.576Z,8.60
2018-12-03T23:44:01.017Z,8.70
2018-12-03T23:46:28.487Z,8.70
2018-12-03T23:48:56.262Z,8.70
2018-12-03T23:51:23.766Z,8.70
2018-12-03T23:53:51.181Z,8.70
2018-12-03T23:56:18.736Z,8.70
2018-12-03T23:58:46.221Z,8.70
